CCA0830 ZYTL-ZSAM
Flight info
| Callsign | CCA0830 |
|---|---|
| Flight time | N/A |
| Altitude | 32100 |
| Route | KARPI W5 TAO URBAD W172 LATUX W108 DUMET W114 LASAN W13 BEGMO W117 DST B221 LJG A470 ENVEN |
| Aircraft | A320/L-V/N |
Departure
| Time | 2026-05-06 04:10 |
|---|---|
| Airport | Dalian Zhoushuizi International Airport (ZYTL) |
Arrival
| Time | N/A |
|---|---|
| Airport | Xiamen Gaoqi International Airport (ZSAM) |
| Time | Latitude | Longitude | Altitude | Speed | Heading |
|---|---|---|---|---|---|
| 2026-05-06 03:48 | 38.96352 | 121.53033 | 116 ft | 0 kts | 275° |
| 2026-05-06 04:05 | 38.96352 | 121.53032 | 115 ft | 1 kts | 275° |
| 2026-05-06 04:05 | 38.96357 | 121.53006 | 114 ft | 5 kts | 301° |
| 2026-05-06 04:06 | 38.96388 | 121.52990 | 112 ft | 7 kts | 342° |
| 2026-05-06 04:06 | 38.96427 | 121.52956 | 114 ft | 9 kts | 293° |
| 2026-05-06 04:06 | 38.96434 | 121.52871 | 115 ft | 12 kts | 276° |
| 2026-05-06 04:06 | 38.96444 | 121.52757 | 113 ft | 16 kts | 276° |
| 2026-05-06 04:07 | 38.96453 | 121.52642 | 115 ft | 15 kts | 274° |
| 2026-05-06 04:07 | 38.96463 | 121.52497 | 115 ft | 18 kts | 277° |
| 2026-05-06 04:07 | 38.96475 | 121.52339 | 116 ft | 21 kts | 276° |
| 2026-05-06 04:07 | 38.96491 | 121.52157 | 115 ft | 17 kts | 276° |
| 2026-05-06 04:08 | 38.96535 | 121.52007 | 115 ft | 20 kts | 303° |
| 2026-05-06 04:08 | 38.96603 | 121.51951 | 116 ft | 6 kts | 6° |
| 2026-05-06 04:08 | 38.96604 | 121.51951 | 116 ft | 0 kts | 5° |
| 2026-05-06 04:08 | 38.96605 | 121.51951 | 116 ft | 1 kts | 4° |
| 2026-05-06 04:09 | 38.96626 | 121.51952 | 113 ft | 5 kts | 3° |
| 2026-05-06 04:09 | 38.96674 | 121.51959 | 115 ft | 9 kts | 10° |
| 2026-05-06 04:09 | 38.96701 | 121.51995 | 115 ft | 6 kts | 87° |
| 2026-05-06 04:09 | 38.96696 | 121.52064 | 116 ft | 16 kts | 95° |
| 2026-05-06 04:10 | 38.96670 | 121.52454 | 112 ft | 77 kts | 96° |
| 2026-05-06 04:10 | 38.96604 | 121.53291 | 116 ft | 128 kts | 96° |
| 2026-05-06 04:10 | 38.96511 | 121.54592 | 362 ft | 151 kts | 95° |
| 2026-05-06 04:10 | 38.96416 | 121.55888 | 870 ft | 154 kts | 97° |
| 2026-05-06 04:11 | 38.96340 | 121.57239 | 1165 ft | 174 kts | 101° |
| 2026-05-06 04:11 | 38.96255 | 121.58633 | 1677 ft | 178 kts | 103° |
| 2026-05-06 04:11 | 38.96141 | 121.60201 | 2216 ft | 197 kts | 101° |
| 2026-05-06 04:11 | 38.96002 | 121.61918 | 2760 ft | 217 kts | 100° |
| 2026-05-06 04:12 | 38.95864 | 121.63630 | 3260 ft | 241 kts | 99° |
| 2026-05-06 04:12 | 38.95694 | 121.65707 | 3875 ft | 260 kts | 99° |
| 2026-05-06 04:12 | 38.95505 | 121.67988 | 4854 ft | 263 kts | 99° |
| 2026-05-06 04:12 | 38.95361 | 121.70328 | 5922 ft | 268 kts | 89° |
| 2026-05-06 04:13 | 38.95782 | 121.72439 | 6779 ft | 275 kts | 62° |
| 2026-05-06 04:13 | 38.96958 | 121.74271 | 7706 ft | 277 kts | 34° |
| 2026-05-06 04:13 | 38.98635 | 121.75261 | 8668 ft | 273 kts | 7° |
| 2026-05-06 04:13 | 39.00510 | 121.75419 | 9678 ft | 270 kts | 348° |
| 2026-05-06 04:14 | 39.02243 | 121.74629 | 10567 ft | 264 kts | 322° |
| 2026-05-06 04:14 | 39.03555 | 121.73027 | 11479 ft | 260 kts | 301° |
| 2026-05-06 04:14 | 39.04274 | 121.70914 | 12378 ft | 260 kts | 278° |
| 2026-05-06 04:14 | 39.04464 | 121.68566 | 13090 ft | 272 kts | 274° |
| 2026-05-06 04:15 | 39.04637 | 121.66025 | 13455 ft | 297 kts | 274° |
| 2026-05-06 04:15 | 39.04835 | 121.63269 | 13754 ft | 322 kts | 274° |
| 2026-05-06 04:15 | 39.05043 | 121.60387 | 14089 ft | 340 kts | 272° |
| 2026-05-06 04:15 | 39.04800 | 121.57370 | 14898 ft | 342 kts | 255° |
| 2026-05-06 04:16 | 39.03833 | 121.54583 | 15762 ft | 346 kts | 237° |
| 2026-05-06 04:16 | 39.02353 | 121.52464 | 16492 ft | 354 kts | 221° |
| 2026-05-06 04:16 | 39.00181 | 121.50800 | 17270 ft | 362 kts | 209° |
| 2026-05-06 04:16 | 38.97956 | 121.49384 | 18010 ft | 366 kts | 209° |
| 2026-05-06 04:17 | 38.95840 | 121.48044 | 18660 ft | 369 kts | 209° |
| 2026-05-06 04:17 | 38.93706 | 121.46687 | 19288 ft | 373 kts | 210° |
| 2026-05-06 04:17 | 38.91438 | 121.45235 | 19907 ft | 377 kts | 210° |
| 2026-05-06 04:17 | 38.89081 | 121.43724 | 20546 ft | 381 kts | 210° |
| 2026-05-06 04:18 | 38.86843 | 121.42290 | 21155 ft | 384 kts | 210° |
| 2026-05-06 04:18 | 38.84556 | 121.40826 | 21756 ft | 388 kts | 210° |
| 2026-05-06 04:18 | 38.82125 | 121.39270 | 22372 ft | 393 kts | 210° |
| 2026-05-06 04:18 | 38.79822 | 121.37798 | 22945 ft | 397 kts | 210° |
| 2026-05-06 04:19 | 38.77387 | 121.36243 | 23518 ft | 401 kts | 211° |
| 2026-05-06 04:19 | 38.74846 | 121.34622 | 24024 ft | 405 kts | 211° |
| 2026-05-06 04:19 | 38.72434 | 121.33082 | 24489 ft | 408 kts | 211° |
| 2026-05-06 04:19 | 38.69986 | 121.31519 | 24948 ft | 412 kts | 211° |
| 2026-05-06 04:20 | 38.67406 | 121.29874 | 25421 ft | 416 kts | 211° |
| 2026-05-06 04:20 | 38.65039 | 121.28367 | 25846 ft | 419 kts | 211° |
| 2026-05-06 04:20 | 38.62387 | 121.26680 | 26306 ft | 423 kts | 211° |
| 2026-05-06 04:20 | 38.59737 | 121.24997 | 26746 ft | 427 kts | 211° |
| 2026-05-06 04:21 | 38.57227 | 121.23331 | 27165 ft | 427 kts | 216° |
| 2026-05-06 04:21 | 38.54799 | 121.21166 | 27584 ft | 425 kts | 224° |
| 2026-05-06 04:21 | 38.52708 | 121.18624 | 27986 ft | 423 kts | 232° |
| 2026-05-06 04:21 | 38.50883 | 121.15679 | 28384 ft | 423 kts | 238° |
| 2026-05-06 04:22 | 38.49142 | 121.12679 | 28796 ft | 426 kts | 237° |
| 2026-05-06 04:22 | 38.47398 | 121.09689 | 29176 ft | 429 kts | 237° |
| 2026-05-06 04:22 | 38.45609 | 121.06635 | 29557 ft | 432 kts | 237° |
| 2026-05-06 04:23 | 38.42114 | 121.00682 | 30236 ft | 437 kts | 237° |
| 2026-05-06 04:23 | 38.40287 | 120.97578 | 30594 ft | 439 kts | 237° |
| 2026-05-06 04:23 | 38.38463 | 120.94484 | 30948 ft | 441 kts | 237° |
| 2026-05-06 04:23 | 38.36617 | 120.91357 | 31348 ft | 441 kts | 238° |
| 2026-05-06 04:24 | 38.34814 | 120.88306 | 31766 ft | 440 kts | 238° |
| 2026-05-06 04:24 | 38.32999 | 120.85240 | 31917 ft | 438 kts | 238° |
| 2026-05-06 04:24 | 38.31204 | 120.82207 | 31939 ft | 437 kts | 238° |
| 2026-05-06 04:25 | 38.27544 | 120.76074 | 31936 ft | 439 kts | 235° |
| 2026-05-06 04:25 | 38.23313 | 120.71066 | 31933 ft | 450 kts | 220° |
| 2026-05-06 04:26 | 38.17804 | 120.67236 | 31930 ft | 458 kts | 211° |
| 2026-05-06 04:26 | 38.12271 | 120.63812 | 31937 ft | 459 kts | 211° |
| 2026-05-06 04:27 | 38.06541 | 120.60256 | 31934 ft | 458 kts | 211° |
| 2026-05-06 04:27 | 38.00519 | 120.57533 | 31938 ft | 468 kts | 197° |
| 2026-05-06 04:28 | 37.94045 | 120.56630 | 31933 ft | 474 kts | 187° |
| 2026-05-06 04:28 | 37.87627 | 120.56168 | 31935 ft | 475 kts | 187° |
| 2026-05-06 04:29 | 37.81308 | 120.55695 | 31934 ft | 475 kts | 187° |
| 2026-05-06 04:29 | 37.74994 | 120.55218 | 31940 ft | 476 kts | 187° |
| 2026-05-06 04:30 | 37.68432 | 120.54724 | 31937 ft | 476 kts | 187° |
| 2026-05-06 04:30 | 37.62058 | 120.53997 | 31942 ft | 475 kts | 191° |
| 2026-05-06 04:31 | 37.55802 | 120.53045 | 31941 ft | 475 kts | 191° |
| 2026-05-06 04:31 | 37.50658 | 120.52273 | 31945 ft | 476 kts | 190° |
| 2026-05-06 04:32 | 37.44077 | 120.51294 | 31947 ft | 476 kts | 190° |
| 2026-05-06 04:32 | 37.39812 | 120.50659 | 31954 ft | 476 kts | 190° |
| 2026-05-06 04:33 | 37.33257 | 120.49682 | 31951 ft | 476 kts | 190° |
| 2026-05-06 04:33 | 37.27433 | 120.48816 | 31953 ft | 476 kts | 190° |
| 2026-05-06 04:34 | 37.23498 | 120.48231 | 31951 ft | 477 kts | 190° |
| 2026-05-06 04:34 | 37.18394 | 120.47473 | 31953 ft | 477 kts | 190° |
| 2026-05-06 04:35 | 37.12043 | 120.46532 | 31953 ft | 477 kts | 189° |
| 2026-05-06 04:35 | 37.05520 | 120.45568 | 31958 ft | 477 kts | 189° |
| 2026-05-06 04:36 | 36.98926 | 120.44595 | 31958 ft | 477 kts | 189° |
| 2026-05-06 04:36 | 36.92330 | 120.43623 | 31963 ft | 477 kts | 189° |
| 2026-05-06 04:37 | 36.85777 | 120.42659 | 31958 ft | 477 kts | 189° |
| 2026-05-06 04:37 | 36.79181 | 120.41691 | 31965 ft | 477 kts | 189° |
| 2026-05-06 04:38 | 36.72610 | 120.40728 | 31967 ft | 473 kts | 189° |
| 2026-05-06 04:38 | 36.66133 | 120.39780 | 31968 ft | 474 kts | 189° |
| 2026-05-06 04:39 | 36.59626 | 120.38829 | 31973 ft | 473 kts | 189° |
| 2026-05-06 04:39 | 36.54194 | 120.38038 | 31979 ft | 473 kts | 188° |
| 2026-05-06 04:40 | 36.47675 | 120.37678 | 31980 ft | 474 kts | 184° |
| 2026-05-06 04:40 | 36.42183 | 120.37484 | 31992 ft | 474 kts | 184° |
| 2026-05-06 04:41 | 36.34889 | 120.37220 | 31983 ft | 473 kts | 184° |
| 2026-05-06 04:41 | 36.29379 | 120.37691 | 31998 ft | 477 kts | 169° |
| 2026-05-06 04:41 | 36.25293 | 120.39301 | 31994 ft | 479 kts | 157° |
| 2026-05-06 04:42 | 36.23316 | 120.40517 | 31997 ft | 480 kts | 153° |
| 2026-05-06 04:42 | 36.17396 | 120.44357 | 32013 ft | 479 kts | 153° |
| 2026-05-06 04:43 | 36.11262 | 120.47482 | 32004 ft | 476 kts | 167° |
| 2026-05-06 04:43 | 36.03670 | 120.48592 | 32019 ft | 472 kts | 179° |
| 2026-05-06 04:44 | 35.98175 | 120.49117 | 32020 ft | 473 kts | 173° |
| 2026-05-06 04:44 | 35.91825 | 120.51299 | 32027 ft | 476 kts | 159° |
| 2026-05-06 04:45 | 35.85778 | 120.54634 | 32023 ft | 476 kts | 157° |
| 2026-05-06 04:45 | 35.79809 | 120.57917 | 32035 ft | 476 kts | 158° |
| 2026-05-06 04:46 | 35.73787 | 120.61217 | 32027 ft | 476 kts | 156° |
| 2026-05-06 04:46 | 35.68131 | 120.64952 | 32038 ft | 476 kts | 152° |
| 2026-05-06 04:47 | 35.62665 | 120.68660 | 32033 ft | 475 kts | 153° |
| 2026-05-06 04:47 | 35.56859 | 120.72583 | 32043 ft | 475 kts | 153° |
| 2026-05-06 04:48 | 35.51160 | 120.76426 | 32034 ft | 475 kts | 153° |
| 2026-05-06 04:48 | 35.45358 | 120.79826 | 32043 ft | 473 kts | 160° |
| 2026-05-06 04:49 | 35.39261 | 120.82833 | 32035 ft | 472 kts | 160° |
| 2026-05-06 04:49 | 35.33166 | 120.85848 | 32046 ft | 472 kts | 160° |
| 2026-05-06 04:50 | 35.27082 | 120.88856 | 32044 ft | 471 kts | 160° |
| 2026-05-06 04:50 | 35.21031 | 120.91842 | 32052 ft | 471 kts | 160° |
| 2026-05-06 04:51 | 35.14949 | 120.94839 | 32042 ft | 471 kts | 160° |
| 2026-05-06 04:51 | 35.09010 | 120.97786 | 32061 ft | 472 kts | 160° |
| 2026-05-06 04:52 | 35.02945 | 121.00804 | 32045 ft | 471 kts | 160° |
| 2026-05-06 04:52 | 34.97104 | 121.03703 | 32063 ft | 471 kts | 160° |
| 2026-05-06 04:53 | 34.91558 | 121.06449 | 32050 ft | 470 kts | 160° |
| 2026-05-06 04:53 | 34.85486 | 121.09450 | 32052 ft | 470 kts | 160° |
| 2026-05-06 04:54 | 34.79495 | 121.12407 | 32044 ft | 470 kts | 160° |
| 2026-05-06 04:54 | 34.73469 | 121.15376 | 32053 ft | 470 kts | 160° |
| 2026-05-06 04:55 | 34.67461 | 121.18331 | 32061 ft | 469 kts | 160° |
| 2026-05-06 04:55 | 34.61413 | 121.21302 | 32067 ft | 469 kts | 160° |
| 2026-05-06 04:56 | 34.55366 | 121.24268 | 32065 ft | 469 kts | 161° |
| 2026-05-06 04:56 | 34.49918 | 121.26936 | 32072 ft | 468 kts | 161° |
| 2026-05-06 04:57 | 34.44061 | 121.29800 | 32069 ft | 468 kts | 161° |
| 2026-05-06 04:57 | 34.38452 | 121.32538 | 32077 ft | 468 kts | 161° |
| 2026-05-06 04:58 | 34.32782 | 121.35302 | 32072 ft | 468 kts | 161° |
| 2026-05-06 04:58 | 34.27109 | 121.38064 | 32080 ft | 467 kts | 161° |
| 2026-05-06 04:59 | 34.21082 | 121.40994 | 32072 ft | 467 kts | 161° |
| 2026-05-06 04:59 | 34.15110 | 121.43892 | 32083 ft | 467 kts | 161° |
| 2026-05-06 05:00 | 34.09087 | 121.46811 | 32076 ft | 466 kts | 161° |
| 2026-05-06 05:00 | 34.03226 | 121.49647 | 32084 ft | 467 kts | 161° |
| 2026-05-06 05:01 | 33.97195 | 121.52561 | 32084 ft | 466 kts | 161° |
| 2026-05-06 05:01 | 33.91200 | 121.55453 | 32081 ft | 466 kts | 161° |
| 2026-05-06 05:02 | 33.85166 | 121.58359 | 32085 ft | 466 kts | 161° |
| 2026-05-06 05:02 | 33.79131 | 121.61261 | 32081 ft | 467 kts | 162° |
| 2026-05-06 05:03 | 33.73350 | 121.64037 | 32083 ft | 467 kts | 162° |
| 2026-05-06 05:03 | 33.67333 | 121.66952 | 32083 ft | 467 kts | 161° |
| 2026-05-06 05:04 | 33.61316 | 121.69907 | 32092 ft | 467 kts | 161° |
| 2026-05-06 05:04 | 33.55414 | 121.72796 | 32087 ft | 466 kts | 161° |
| 2026-05-06 05:05 | 33.49391 | 121.75737 | 32094 ft | 467 kts | 161° |
| 2026-05-06 05:05 | 33.43392 | 121.78666 | 32094 ft | 467 kts | 161° |
| 2026-05-06 05:06 | 33.37549 | 121.81514 | 32098 ft | 467 kts | 161° |
| 2026-05-06 05:06 | 33.33528 | 121.83472 | 32100 ft | 467 kts | 161° |
| 2026-05-06 05:07 | 33.31259 | 121.84575 | 32100 ft | 467 kts | 161° |
| 2026-05-06 05:07 | 33.25236 | 121.87501 | 32096 ft | 467 kts | 161° |
| 2026-05-06 05:08 | 33.19355 | 121.90354 | 32107 ft | 467 kts | 161° |
| 2026-05-06 05:08 | 33.13557 | 121.93163 | 32102 ft | 467 kts | 161° |
| 2026-05-06 05:09 | 33.07411 | 121.96136 | 32104 ft | 467 kts | 162° |
| 2026-05-06 05:09 | 33.01455 | 121.99012 | 32102 ft | 467 kts | 162° |
| 2026-05-06 05:10 | 32.95388 | 122.01938 | 32109 ft | 467 kts | 162° |
| 2026-05-06 05:10 | 32.89575 | 122.04738 | 32106 ft | 467 kts | 162° |
| 2026-05-06 05:11 | 32.83543 | 122.07638 | 32111 ft | 467 kts | 162° |
| 2026-05-06 05:11 | 32.77503 | 122.10539 | 32113 ft | 468 kts | 162° |
| 2026-05-06 05:12 | 32.71505 | 122.13415 | 32119 ft | 467 kts | 162° |
| 2026-05-06 05:12 | 32.65471 | 122.16304 | 32113 ft | 468 kts | 162° |
| 2026-05-06 05:13 | 32.59425 | 122.19194 | 32120 ft | 468 kts | 162° |
| 2026-05-06 05:13 | 32.53422 | 122.22060 | 32118 ft | 468 kts | 162° |
| 2026-05-06 05:14 | 32.47408 | 122.24926 | 32125 ft | 468 kts | 162° |
| 2026-05-06 05:14 | 32.41357 | 122.27807 | 32120 ft | 468 kts | 162° |
| 2026-05-06 05:15 | 32.35299 | 122.30686 | 32125 ft | 469 kts | 162° |
| 2026-05-06 05:15 | 32.29403 | 122.33485 | 32123 ft | 469 kts | 163° |
| 2026-05-06 05:16 | 32.23350 | 122.36354 | 32128 ft | 469 kts | 163° |
| 2026-05-06 05:16 | 32.17361 | 122.39188 | 32123 ft | 469 kts | 163° |
| 2026-05-06 05:17 | 32.11432 | 122.41990 | 32132 ft | 469 kts | 163° |
| 2026-05-06 05:17 | 32.05416 | 122.44830 | 32129 ft | 469 kts | 163° |
| 2026-05-06 05:18 | 31.99347 | 122.47690 | 32137 ft | 469 kts | 163° |
| 2026-05-06 05:18 | 31.93327 | 122.50524 | 32131 ft | 469 kts | 163° |
| 2026-05-06 05:19 | 31.87313 | 122.53350 | 32140 ft | 469 kts | 164° |
| 2026-05-06 05:19 | 31.81253 | 122.56194 | 32130 ft | 469 kts | 164° |
| 2026-05-06 05:20 | 31.75186 | 122.59037 | 32140 ft | 469 kts | 164° |
| 2026-05-06 05:20 | 31.69201 | 122.61830 | 31753 ft | 471 kts | 161° |
| 2026-05-06 05:20 | 31.66135 | 122.63248 | 32097 ft | 474 kts | 160° |
| 2026-05-06 05:21 | 31.63268 | 122.64590 | 32138 ft | 484 kts | 160° |
| 2026-05-06 05:21 | 31.60102 | 122.66092 | 32144 ft | 495 kts | 160° |
| 2026-05-06 05:21 | 31.56974 | 122.67582 | 32140 ft | 499 kts | 160° |
| 2026-05-06 05:22 | 31.50487 | 122.70667 | 32140 ft | 498 kts | 160° |
| 2026-05-06 05:22 | 31.44082 | 122.73643 | 32143 ft | 497 kts | 165° |
| 2026-05-06 05:22 | 31.40716 | 122.74510 | 32142 ft | 493 kts | 177° |
| 2026-05-06 05:23 | 31.37309 | 122.74578 | 32145 ft | 488 kts | 189° |
| 2026-05-06 05:23 | 31.34257 | 122.73944 | 32143 ft | 482 kts | 200° |
| 2026-05-06 05:23 | 31.28559 | 122.70579 | 32143 ft | 467 kts | 224° |
| 2026-05-06 05:24 | 31.23677 | 122.65604 | 32141 ft | 465 kts | 226° |
| 2026-05-06 05:24 | 31.18776 | 122.60655 | 32139 ft | 466 kts | 225° |
| 2026-05-06 05:25 | 31.14007 | 122.55991 | 32139 ft | 466 kts | 224° |
| 2026-05-06 05:25 | 31.09014 | 122.51154 | 32135 ft | 466 kts | 224° |
| 2026-05-06 05:26 | 31.04084 | 122.46390 | 32136 ft | 466 kts | 223° |
| 2026-05-06 05:26 | 31.01366 | 122.44290 | 32136 ft | 473 kts | 212° |
| 2026-05-06 05:26 | 30.98350 | 122.42857 | 32134 ft | 481 kts | 200° |
| 2026-05-06 05:27 | 30.95044 | 122.42119 | 32135 ft | 487 kts | 188° |
| 2026-05-06 05:27 | 30.92165 | 122.41931 | 32130 ft | 489 kts | 186° |
| 2026-05-06 05:27 | 30.85370 | 122.41588 | 32136 ft | 489 kts | 186° |
| 2026-05-06 05:28 | 30.78570 | 122.41224 | 32133 ft | 489 kts | 186° |
| 2026-05-06 05:28 | 30.71883 | 122.40849 | 32143 ft | 489 kts | 186° |
| 2026-05-06 05:29 | 30.65120 | 122.40467 | 32135 ft | 489 kts | 186° |
| 2026-05-06 05:29 | 30.59540 | 122.40152 | 32136 ft | 490 kts | 186° |
| 2026-05-06 05:30 | 30.51625 | 122.39726 | 32133 ft | 490 kts | 186° |
| 2026-05-06 05:30 | 30.45946 | 122.39431 | 32129 ft | 490 kts | 186° |
| 2026-05-06 05:31 | 30.39188 | 122.39079 | 32131 ft | 490 kts | 186° |
| 2026-05-06 05:31 | 30.32451 | 122.38729 | 32133 ft | 490 kts | 186° |
| 2026-05-06 05:32 | 30.25637 | 122.38372 | 32129 ft | 491 kts | 186° |
| 2026-05-06 05:32 | 30.18811 | 122.37967 | 32131 ft | 490 kts | 186° |
| 2026-05-06 05:33 | 30.11995 | 122.37524 | 32130 ft | 491 kts | 186° |
| 2026-05-06 05:33 | 30.05165 | 122.37089 | 32129 ft | 491 kts | 186° |
| 2026-05-06 05:34 | 29.98571 | 122.36675 | 32133 ft | 492 kts | 186° |
| 2026-05-06 05:34 | 29.91711 | 122.36761 | 32132 ft | 496 kts | 175° |
| 2026-05-06 05:35 | 29.84896 | 122.38255 | 32130 ft | 498 kts | 171° |
| 2026-05-06 05:35 | 29.78101 | 122.39854 | 32134 ft | 498 kts | 171° |
| 2026-05-06 05:36 | 29.71302 | 122.41440 | 32133 ft | 499 kts | 171° |
| 2026-05-06 05:36 | 29.64529 | 122.43017 | 32134 ft | 499 kts | 171° |
| 2026-05-06 05:37 | 29.57771 | 122.44588 | 32135 ft | 499 kts | 171° |
| 2026-05-06 05:37 | 29.50988 | 122.46163 | 32135 ft | 499 kts | 171° |
| 2026-05-06 05:38 | 29.44170 | 122.47743 | 32134 ft | 500 kts | 171° |
| 2026-05-06 05:38 | 29.37464 | 122.49296 | 32136 ft | 500 kts | 171° |
| 2026-05-06 05:39 | 29.30758 | 122.50847 | 32135 ft | 500 kts | 171° |
| 2026-05-06 05:39 | 29.23966 | 122.52328 | 32128 ft | 499 kts | 176° |
| 2026-05-06 05:40 | 29.20514 | 122.52377 | 32133 ft | 494 kts | 188° |
| 2026-05-06 05:40 | 29.17179 | 122.51672 | 32132 ft | 489 kts | 200° |
| 2026-05-06 05:40 | 29.14073 | 122.50268 | 32132 ft | 483 kts | 211° |
| 2026-05-06 05:40 | 29.11123 | 122.48466 | 32129 ft | 481 kts | 214° |
| 2026-05-06 05:41 | 29.05276 | 122.44737 | 32129 ft | 481 kts | 213° |
| 2026-05-06 05:41 | 28.99356 | 122.41157 | 32123 ft | 482 kts | 212° |
| 2026-05-06 05:42 | 28.93431 | 122.37668 | 32130 ft | 482 kts | 212° |
| 2026-05-06 05:42 | 28.87439 | 122.34155 | 32122 ft | 482 kts | 212° |
| 2026-05-06 05:43 | 28.81480 | 122.30663 | 32128 ft | 483 kts | 212° |
| 2026-05-06 05:43 | 28.75563 | 122.27199 | 32122 ft | 483 kts | 212° |
| 2026-05-06 05:44 | 28.70849 | 122.24443 | 32122 ft | 483 kts | 212° |
| 2026-05-06 05:44 | 28.64863 | 122.20947 | 32129 ft | 483 kts | 212° |
| 2026-05-06 05:45 | 28.58884 | 122.17459 | 32125 ft | 483 kts | 212° |
| 2026-05-06 05:45 | 28.52908 | 122.13976 | 32122 ft | 483 kts | 212° |
| 2026-05-06 05:46 | 28.47154 | 122.10628 | 32122 ft | 483 kts | 212° |
| 2026-05-06 05:46 | 28.41192 | 122.07162 | 32120 ft | 482 kts | 212° |
| 2026-05-06 05:47 | 28.35309 | 122.03747 | 32120 ft | 482 kts | 212° |
| 2026-05-06 05:47 | 28.29649 | 122.00466 | 32118 ft | 482 kts | 212° |
| 2026-05-06 05:48 | 28.23960 | 121.97171 | 32120 ft | 482 kts | 212° |
| 2026-05-06 05:48 | 28.17982 | 121.93713 | 32120 ft | 482 kts | 212° |
| 2026-05-06 05:49 | 28.12209 | 121.90379 | 32120 ft | 482 kts | 212° |
| 2026-05-06 05:49 | 28.06663 | 121.87176 | 32120 ft | 481 kts | 213° |
| 2026-05-06 05:50 | 28.03935 | 121.85186 | 32119 ft | 473 kts | 224° |
| 2026-05-06 05:50 | 28.01627 | 121.82645 | 32114 ft | 465 kts | 236° |
| 2026-05-06 05:50 | 27.99842 | 121.79682 | 32115 ft | 456 kts | 247° |
| 2026-05-06 05:50 | 27.98726 | 121.76798 | 32122 ft | 449 kts | 257° |
| 2026-05-06 05:51 | 27.97284 | 121.70066 | 32121 ft | 444 kts | 262° |
| 2026-05-06 05:51 | 27.95910 | 121.63313 | 32115 ft | 443 kts | 262° |
| 2026-05-06 05:52 | 27.94547 | 121.56669 | 32117 ft | 442 kts | 262° |
| 2026-05-06 05:52 | 27.93192 | 121.50086 | 32115 ft | 442 kts | 262° |
| 2026-05-06 05:53 | 27.91806 | 121.43371 | 32114 ft | 442 kts | 262° |
| 2026-05-06 05:53 | 27.90421 | 121.36672 | 32113 ft | 442 kts | 261° |
| 2026-05-06 05:54 | 27.89019 | 121.29915 | 32113 ft | 441 kts | 261° |
| 2026-05-06 05:54 | 27.87627 | 121.23217 | 32111 ft | 441 kts | 261° |
| 2026-05-06 05:55 | 27.86258 | 121.16624 | 32110 ft | 441 kts | 261° |
| 2026-05-06 05:55 | 27.84864 | 121.09920 | 32112 ft | 441 kts | 261° |
| 2026-05-06 05:56 | 27.83464 | 121.03206 | 32107 ft | 441 kts | 261° |
| 2026-05-06 05:56 | 27.82073 | 120.96559 | 32107 ft | 440 kts | 261° |
| 2026-05-06 05:57 | 27.80662 | 120.89828 | 32103 ft | 440 kts | 261° |
| 2026-05-06 05:57 | 27.79302 | 120.83359 | 32101 ft | 440 kts | 261° |
| 2026-05-06 05:58 | 27.77886 | 120.76636 | 32099 ft | 440 kts | 261° |
| 2026-05-06 05:58 | 27.76463 | 120.69924 | 32093 ft | 440 kts | 259° |
| 2026-05-06 05:59 | 27.73842 | 120.63661 | 32090 ft | 453 kts | 238° |
| 2026-05-06 05:59 | 27.71733 | 120.60991 | 32091 ft | 461 kts | 227° |
| 2026-05-06 05:59 | 27.69156 | 120.58796 | 32092 ft | 468 kts | 217° |
| 2026-05-06 06:00 | 27.63656 | 120.54887 | 32090 ft | 467 kts | 217° |
| 2026-05-06 06:00 | 27.58161 | 120.50968 | 32089 ft | 468 kts | 217° |
| 2026-05-06 06:01 | 27.52668 | 120.47052 | 32091 ft | 467 kts | 217° |
| 2026-05-06 06:01 | 27.47281 | 120.43216 | 32090 ft | 467 kts | 217° |
| 2026-05-06 06:02 | 27.42089 | 120.39522 | 32091 ft | 467 kts | 217° |
| 2026-05-06 06:02 | 27.36697 | 120.35691 | 32088 ft | 467 kts | 217° |
| 2026-05-06 06:03 | 27.31201 | 120.31799 | 32091 ft | 467 kts | 217° |
| 2026-05-06 06:03 | 27.26695 | 120.28613 | 32088 ft | 466 kts | 217° |
| 2026-05-06 06:04 | 27.21670 | 120.25063 | 32093 ft | 467 kts | 217° |
| 2026-05-06 06:04 | 27.17119 | 120.21851 | 32097 ft | 467 kts | 217° |
| 2026-05-06 06:05 | 27.13617 | 120.19382 | 32091 ft | 467 kts | 217° |
| 2026-05-06 06:05 | 27.08283 | 120.15605 | 32096 ft | 466 kts | 217° |
| 2026-05-06 06:06 | 27.02894 | 120.11768 | 32097 ft | 467 kts | 217° |
| 2026-05-06 06:06 | 26.97418 | 120.07878 | 32099 ft | 466 kts | 217° |
| 2026-05-06 06:07 | 26.91934 | 120.03989 | 32098 ft | 465 kts | 217° |
| 2026-05-06 06:07 | 26.86458 | 120.00110 | 32100 ft | 465 kts | 217° |
| 2026-05-06 06:08 | 26.81061 | 119.96297 | 32101 ft | 465 kts | 217° |
| 2026-05-06 06:08 | 26.75583 | 119.92433 | 32102 ft | 465 kts | 217° |
| 2026-05-06 06:09 | 26.70142 | 119.88599 | 32103 ft | 465 kts | 217° |
| 2026-05-06 06:09 | 26.64664 | 119.84743 | 32104 ft | 465 kts | 217° |
| 2026-05-06 06:10 | 26.59192 | 119.80897 | 32106 ft | 464 kts | 217° |
| 2026-05-06 06:10 | 26.53768 | 119.77087 | 32122 ft | 464 kts | 216° |
| 2026-05-06 06:11 | 26.48275 | 119.73234 | 32108 ft | 463 kts | 216° |
| 2026-05-06 06:11 | 26.42836 | 119.69420 | 32114 ft | 463 kts | 216° |
| 2026-05-06 06:12 | 26.37828 | 119.65909 | 32106 ft | 463 kts | 216° |
| 2026-05-06 06:12 | 26.35098 | 119.63996 | 31947 ft | 464 kts | 216° |
| 2026-05-06 06:12 | 26.32365 | 119.62082 | 31709 ft | 463 kts | 216° |
| 2026-05-06 06:13 | 26.29637 | 119.60174 | 31463 ft | 464 kts | 216° |
| 2026-05-06 06:13 | 26.26917 | 119.58270 | 31223 ft | 467 kts | 216° |
| 2026-05-06 06:13 | 26.24891 | 119.56858 | 31057 ft | 467 kts | 215° |
| 2026-05-06 06:13 | 26.23946 | 119.56238 | 30973 ft | 467 kts | 213° |
| 2026-05-06 06:14 | 26.21892 | 119.55071 | 30813 ft | 470 kts | 208° |
| 2026-05-06 06:14 | 26.18855 | 119.53739 | 30573 ft | 472 kts | 201° |
| 2026-05-06 06:15 | 26.15458 | 119.52587 | 30326 ft | 471 kts | 200° |
| 2026-05-06 06:15 | 26.12592 | 119.51619 | 30122 ft | 469 kts | 200° |
| 2026-05-06 06:15 | 26.09484 | 119.50563 | 29860 ft | 468 kts | 200° |
| 2026-05-06 06:16 | 26.06786 | 119.49645 | 29614 ft | 466 kts | 200° |
| 2026-05-06 06:16 | 26.03712 | 119.48598 | 29371 ft | 464 kts | 200° |
| 2026-05-06 06:16 | 26.01113 | 119.47712 | 29020 ft | 463 kts | 200° |
| 2026-05-06 06:16 | 25.98039 | 119.46667 | 28533 ft | 458 kts | 200° |
| 2026-05-06 06:17 | 25.95135 | 119.45679 | 28094 ft | 454 kts | 200° |
| 2026-05-06 06:17 | 25.92148 | 119.44664 | 27639 ft | 450 kts | 200° |
| 2026-05-06 06:17 | 25.89167 | 119.43650 | 27192 ft | 446 kts | 200° |
| 2026-05-06 06:17 | 25.87243 | 119.42997 | 26910 ft | 444 kts | 200° |
| 2026-05-06 06:18 | 25.84734 | 119.42145 | 26538 ft | 442 kts | 200° |
| 2026-05-06 06:18 | 25.81799 | 119.41149 | 26102 ft | 439 kts | 200° |
| 2026-05-06 06:18 | 25.78938 | 119.40177 | 25686 ft | 436 kts | 200° |
| 2026-05-06 06:18 | 25.76105 | 119.39038 | 25269 ft | 429 kts | 208° |
| 2026-05-06 06:19 | 25.73556 | 119.37422 | 24862 ft | 423 kts | 218° |
| 2026-05-06 06:19 | 25.71359 | 119.35407 | 24461 ft | 416 kts | 227° |
| 2026-05-06 06:19 | 25.69419 | 119.33130 | 24073 ft | 412 kts | 230° |
| 2026-05-06 06:19 | 25.67466 | 119.30818 | 23685 ft | 410 kts | 229° |
| 2026-05-06 06:20 | 25.65516 | 119.28521 | 23232 ft | 407 kts | 229° |
| 2026-05-06 06:20 | 25.63589 | 119.26255 | 22765 ft | 405 kts | 229° |
| 2026-05-06 06:20 | 25.61688 | 119.24023 | 22316 ft | 402 kts | 229° |
| 2026-05-06 06:20 | 25.59769 | 119.21771 | 21865 ft | 400 kts | 229° |
| 2026-05-06 06:21 | 25.57866 | 119.19538 | 21421 ft | 397 kts | 229° |
| 2026-05-06 06:21 | 25.55974 | 119.17319 | 20979 ft | 395 kts | 229° |
| 2026-05-06 06:21 | 25.54110 | 119.15134 | 20553 ft | 392 kts | 228° |
| 2026-05-06 06:21 | 25.52267 | 119.12975 | 20135 ft | 390 kts | 228° |
| 2026-05-06 06:22 | 25.50406 | 119.10796 | 19716 ft | 388 kts | 228° |
| 2026-05-06 06:22 | 25.48707 | 119.08809 | 19333 ft | 385 kts | 228° |
| 2026-05-06 06:22 | 25.47048 | 119.06869 | 18963 ft | 383 kts | 228° |
| 2026-05-06 06:22 | 25.45260 | 119.04778 | 18568 ft | 381 kts | 228° |
| 2026-05-06 06:23 | 25.43561 | 119.02793 | 18183 ft | 379 kts | 228° |
| 2026-05-06 06:23 | 25.41777 | 119.00709 | 17725 ft | 377 kts | 228° |
| 2026-05-06 06:23 | 25.40206 | 118.98875 | 17333 ft | 375 kts | 228° |
| 2026-05-06 06:23 | 25.39450 | 118.97993 | 17147 ft | 374 kts | 228° |
| 2026-05-06 06:24 | 25.38134 | 118.96457 | 16819 ft | 373 kts | 228° |
| 2026-05-06 06:24 | 25.36705 | 118.94789 | 16464 ft | 371 kts | 228° |
| 2026-05-06 06:24 | 25.35396 | 118.93264 | 16137 ft | 369 kts | 228° |
| 2026-05-06 06:24 | 25.34517 | 118.92240 | 15957 ft | 368 kts | 228° |
| 2026-05-06 06:25 | 25.33055 | 118.90525 | 15822 ft | 366 kts | 229° |
| 2026-05-06 06:25 | 25.31315 | 118.88423 | 15775 ft | 368 kts | 229° |
| 2026-05-06 06:25 | 25.28365 | 118.84823 | 15506 ft | 368 kts | 229° |
| 2026-05-06 06:26 | 25.26694 | 118.82790 | 15217 ft | 366 kts | 229° |
| 2026-05-06 06:26 | 25.24995 | 118.80730 | 14916 ft | 359 kts | 229° |
| 2026-05-06 06:26 | 25.23332 | 118.78718 | 14620 ft | 350 kts | 229° |
| 2026-05-06 06:26 | 25.21710 | 118.76758 | 14316 ft | 342 kts | 229° |
| 2026-05-06 06:27 | 25.20122 | 118.74841 | 14020 ft | 334 kts | 229° |
| 2026-05-06 06:27 | 25.18602 | 118.73006 | 13725 ft | 327 kts | 229° |
| 2026-05-06 06:27 | 25.17167 | 118.71275 | 13425 ft | 321 kts | 229° |
| 2026-05-06 06:27 | 25.15673 | 118.69472 | 13092 ft | 316 kts | 229° |
| 2026-05-06 06:28 | 25.14239 | 118.67743 | 12784 ft | 317 kts | 229° |
| 2026-05-06 06:28 | 25.12848 | 118.66064 | 12480 ft | 314 kts | 229° |
| 2026-05-06 06:28 | 25.11421 | 118.64345 | 12165 ft | 310 kts | 229° |
| 2026-05-06 06:28 | 25.10032 | 118.62676 | 11872 ft | 310 kts | 228° |
| 2026-05-06 06:29 | 25.08654 | 118.61026 | 11579 ft | 307 kts | 228° |
| 2026-05-06 06:29 | 25.07219 | 118.59362 | 11270 ft | 303 kts | 227° |
| 2026-05-06 06:29 | 25.05867 | 118.57819 | 10989 ft | 304 kts | 227° |
| 2026-05-06 06:29 | 25.04493 | 118.56254 | 10706 ft | 301 kts | 227° |
| 2026-05-06 06:30 | 25.03141 | 118.54711 | 10420 ft | 298 kts | 227° |
| 2026-05-06 06:30 | 25.01710 | 118.53073 | 10120 ft | 296 kts | 227° |
| 2026-05-06 06:30 | 25.00381 | 118.51548 | 9900 ft | 292 kts | 227° |
| 2026-05-06 06:30 | 24.99016 | 118.49981 | 9804 ft | 280 kts | 227° |
| 2026-05-06 06:31 | 24.97909 | 118.48712 | 9788 ft | 267 kts | 227° |
| 2026-05-06 06:31 | 24.96816 | 118.47463 | 9798 ft | 252 kts | 227° |
| 2026-05-06 06:31 | 24.95669 | 118.46147 | 9797 ft | 248 kts | 228° |
| 2026-05-06 06:31 | 24.94472 | 118.44770 | 9794 ft | 249 kts | 228° |
| 2026-05-06 06:32 | 24.93275 | 118.43393 | 9798 ft | 248 kts | 228° |
| 2026-05-06 06:32 | 24.92152 | 118.42105 | 9800 ft | 248 kts | 227° |
| 2026-05-06 06:32 | 24.90976 | 118.40758 | 9799 ft | 248 kts | 228° |
| 2026-05-06 06:32 | 24.89786 | 118.39395 | 9804 ft | 247 kts | 228° |
| 2026-05-06 06:33 | 24.88592 | 118.38028 | 9797 ft | 248 kts | 228° |
| 2026-05-06 06:33 | 24.87394 | 118.36657 | 9794 ft | 248 kts | 228° |
| 2026-05-06 06:33 | 24.86348 | 118.35458 | 9805 ft | 247 kts | 228° |
| 2026-05-06 06:33 | 24.85762 | 118.34787 | 9796 ft | 248 kts | 228° |
| 2026-05-06 06:34 | 24.84920 | 118.33793 | 9790 ft | 246 kts | 234° |
| 2026-05-06 06:34 | 24.84219 | 118.32164 | 9803 ft | 245 kts | 259° |
| 2026-05-06 06:34 | 24.84266 | 118.30381 | 9806 ft | 246 kts | 285° |
| 2026-05-06 06:34 | 24.85057 | 118.28770 | 9807 ft | 250 kts | 307° |
| 2026-05-06 06:35 | 24.86213 | 118.27267 | 9802 ft | 251 kts | 308° |
| 2026-05-06 06:35 | 24.87310 | 118.25848 | 9803 ft | 251 kts | 308° |
| 2026-05-06 06:35 | 24.88380 | 118.24361 | 9797 ft | 250 kts | 301° |
| 2026-05-06 06:35 | 24.89198 | 118.22728 | 9807 ft | 249 kts | 294° |
| 2026-05-06 06:36 | 24.89969 | 118.21034 | 9797 ft | 249 kts | 295° |
| 2026-05-06 06:36 | 24.90750 | 118.19342 | 9799 ft | 249 kts | 295° |
| 2026-05-06 06:36 | 24.91523 | 118.17679 | 9792 ft | 248 kts | 295° |
| 2026-05-06 06:36 | 24.92217 | 118.16036 | 9796 ft | 245 kts | 288° |
| 2026-05-06 06:37 | 24.92671 | 118.14226 | 9805 ft | 247 kts | 282° |
| 2026-05-06 06:37 | 24.93053 | 118.12504 | 9795 ft | 247 kts | 283° |
| 2026-05-06 06:37 | 24.93471 | 118.10687 | 9726 ft | 247 kts | 283° |
| 2026-05-06 06:37 | 24.93846 | 118.09059 | 9545 ft | 246 kts | 283° |
| 2026-05-06 06:38 | 24.94216 | 118.07281 | 9345 ft | 244 kts | 277° |
| 2026-05-06 06:38 | 24.94324 | 118.05440 | 9146 ft | 243 kts | 270° |
| 2026-05-06 06:38 | 24.94349 | 118.03575 | 8950 ft | 244 kts | 270° |
| 2026-05-06 06:38 | 24.94360 | 118.01704 | 8749 ft | 244 kts | 264° |
| 2026-05-06 06:39 | 24.93851 | 118.00011 | 8553 ft | 241 kts | 237° |
| 2026-05-06 06:39 | 24.92725 | 117.98800 | 8361 ft | 246 kts | 212° |
| 2026-05-06 06:39 | 24.91239 | 117.98278 | 8195 ft | 251 kts | 186° |
| 2026-05-06 06:39 | 24.89504 | 117.98399 | 8004 ft | 251 kts | 177° |
| 2026-05-06 06:40 | 24.88013 | 117.98553 | 7842 ft | 252 kts | 177° |
| 2026-05-06 06:40 | 24.86270 | 117.98727 | 7652 ft | 251 kts | 177° |
| 2026-05-06 06:40 | 24.84534 | 117.98894 | 7466 ft | 251 kts | 178° |
| 2026-05-06 06:40 | 24.82810 | 117.99055 | 7274 ft | 249 kts | 178° |
| 2026-05-06 06:41 | 24.81150 | 117.99208 | 7085 ft | 248 kts | 178° |
| 2026-05-06 06:41 | 24.79518 | 117.99358 | 6906 ft | 247 kts | 178° |
| 2026-05-06 06:41 | 24.77984 | 117.99500 | 6741 ft | 246 kts | 178° |
| 2026-05-06 06:41 | 24.76293 | 117.99657 | 6555 ft | 246 kts | 178° |
| 2026-05-06 06:42 | 24.74604 | 117.99815 | 6365 ft | 245 kts | 178° |
| 2026-05-06 06:42 | 24.72955 | 117.99968 | 6174 ft | 245 kts | 178° |
| 2026-05-06 06:42 | 24.71383 | 118.00113 | 5988 ft | 243 kts | 177° |
| 2026-05-06 06:42 | 24.69673 | 118.00274 | 5899 ft | 244 kts | 177° |
| 2026-05-06 06:43 | 24.68104 | 118.00420 | 5893 ft | 227 kts | 178° |
| 2026-05-06 06:43 | 24.66577 | 118.00564 | 5909 ft | 225 kts | 178° |
| 2026-05-06 06:43 | 24.65111 | 118.00700 | 5898 ft | 222 kts | 178° |
| 2026-05-06 06:43 | 24.63663 | 118.00835 | 5893 ft | 222 kts | 178° |
| 2026-05-06 06:44 | 24.62130 | 118.00976 | 5896 ft | 223 kts | 178° |
| 2026-05-06 06:44 | 24.60933 | 118.01088 | 5896 ft | 223 kts | 178° |
| 2026-05-06 06:44 | 24.59611 | 118.01212 | 5899 ft | 223 kts | 178° |
| 2026-05-06 06:44 | 24.58177 | 118.01346 | 5855 ft | 224 kts | 178° |
| 2026-05-06 06:45 | 24.56713 | 118.01253 | 5732 ft | 220 kts | 201° |
| 2026-05-06 06:45 | 24.55482 | 118.00350 | 5503 ft | 213 kts | 229° |
| 2026-05-06 06:45 | 24.54607 | 117.99267 | 5286 ft | 215 kts | 231° |
| 2026-05-06 06:45 | 24.53733 | 117.98169 | 5080 ft | 216 kts | 231° |
| 2026-05-06 06:46 | 24.52732 | 117.96918 | 4843 ft | 213 kts | 231° |
| 2026-05-06 06:46 | 24.51871 | 117.95852 | 4606 ft | 212 kts | 230° |
| 2026-05-06 06:46 | 24.50942 | 117.94713 | 4388 ft | 214 kts | 230° |
| 2026-05-06 06:46 | 24.49942 | 117.93496 | 4138 ft | 215 kts | 230° |
| 2026-05-06 06:47 | 24.49039 | 117.92393 | 3975 ft | 215 kts | 230° |
| 2026-05-06 06:47 | 24.48059 | 117.91200 | 3895 ft | 209 kts | 230° |
| 2026-05-06 06:47 | 24.47092 | 117.90024 | 3928 ft | 214 kts | 230° |
| 2026-05-06 06:47 | 24.46126 | 117.88843 | 3948 ft | 216 kts | 230° |
| 2026-05-06 06:48 | 24.45238 | 117.87764 | 3940 ft | 214 kts | 230° |
| 2026-05-06 06:48 | 24.44262 | 117.86752 | 3819 ft | 212 kts | 213° |
| 2026-05-06 06:48 | 24.42886 | 117.86345 | 3500 ft | 217 kts | 179° |
| 2026-05-06 06:48 | 24.41607 | 117.86793 | 3364 ft | 216 kts | 146° |
| 2026-05-06 06:49 | 24.40677 | 117.88060 | 3328 ft | 212 kts | 111° |
| 2026-05-06 06:49 | 24.40329 | 117.89547 | 3263 ft | 203 kts | 99° |
| 2026-05-06 06:49 | 24.40222 | 117.90993 | 3137 ft | 195 kts | 86° |
| 2026-05-06 06:49 | 24.40434 | 117.92379 | 3004 ft | 187 kts | 71° |
| 2026-05-06 06:50 | 24.40955 | 117.93692 | 2962 ft | 193 kts | 59° |
| 2026-05-06 06:50 | 24.41685 | 117.94900 | 2871 ft | 188 kts | 52° |
| 2026-05-06 06:50 | 24.42456 | 117.96000 | 2751 ft | 188 kts | 50° |
| 2026-05-06 06:50 | 24.43215 | 117.97064 | 2647 ft | 189 kts | 51° |
| 2026-05-06 06:51 | 24.43991 | 117.98153 | 2442 ft | 188 kts | 51° |
| 2026-05-06 06:51 | 24.44766 | 117.99238 | 2320 ft | 186 kts | 51° |
| 2026-05-06 06:51 | 24.45501 | 118.00269 | 2297 ft | 186 kts | 52° |
| 2026-05-06 06:51 | 24.46282 | 118.01365 | 2294 ft | 186 kts | 52° |
| 2026-05-06 06:52 | 24.47055 | 118.02451 | 2299 ft | 187 kts | 52° |
| 2026-05-06 06:52 | 24.47837 | 118.03547 | 2299 ft | 187 kts | 52° |
| 2026-05-06 06:52 | 24.48608 | 118.04628 | 2183 ft | 186 kts | 52° |
| 2026-05-06 06:52 | 24.49385 | 118.05715 | 1937 ft | 187 kts | 52° |
| 2026-05-06 06:53 | 24.50159 | 118.06798 | 1582 ft | 185 kts | 53° |
| 2026-05-06 06:53 | 24.50928 | 118.07881 | 1296 ft | 184 kts | 53° |
| 2026-05-06 06:53 | 24.51456 | 118.08621 | 1254 ft | 183 kts | 55° |
| 2026-05-06 06:53 | 24.51829 | 118.09153 | 1255 ft | 183 kts | 56° |
| 2026-05-06 06:54 | 24.52210 | 118.09682 | 1201 ft | 186 kts | 52° |